メインページ
METAR-TAF:

METAR-TAF

空港 :

静浜基地

静浜, 日本

緯度: 34-49N, 経度: 138-18E, 海抜: 7m

現時点の気象観測

当レポートは36分前の08:08(UTC)に作成
の風 6kt、北東から南東の間で変化する
気温 28°C
湿度 74%
気圧 1010 hPa
視程10km以上
高度2000ftの雲はほとんどない
高度25000ftの千切れ雲あり

METAR: RJNY 200808Z 09006KT 050V140 9999 FEW020 BKN250 28/23 Q1010 RMK 1CU020 A2984

時間: 17:44 (08:44 UTC)


TAF: 見つかりません

4,000以上の空港の気象観測と天気予報(METAR報とTAF報)

利用可能な観測所は地図上に黄色い丸と赤い丸で示す。

丸の上にカーソルを重ねると観測所名を参照できる。

次にクリックすると気象観測と天気予報を参照できる。

マップの切り替え:黒色「×」印の緑ボタンをクリックして拡大、「-」印の緑ボタンをクリックして縮小、緑色の三角印をクリックして隣りの地図に切り替え


METAR-TAF: